Time;durP1;ratioP1;P1;durP2;ratioP2;P2;SDS_P1;SDS_P2;PMS_P1;PMS_P2;Temp;Humidity;BMP_temperature;BMP_pressure;BME280_temperature;BME280_humidity;BME280_pressure;Samples;Min_cycle;Max_cycle;Signal;HPM_P1;HPM_P2
2023/06/05 00:02:00;;;;;;;7.20;3.50;;;;;;;10.43;83.37;96081.77;106744;1274;25310;-70
2023/06/05 00:04:28;;;;;;;4.10;3.30;;;;;;;10.43;83.01;96082.11;106692;1274;22501;-70
2023/06/05 00:06:57;;;;;;;8.60;3.10;;;;;;;10.42;82.85;96083.70;106709;1274;24315;-70
2023/06/05 00:09:25;;;;;;;6.90;3.30;;;;;;;10.39;82.49;96083.02;106748;1274;25288;-70
2023/06/05 00:11:53;;;;;;;3.80;2.90;;;;;;;10.32;82.32;96083.98;106616;1274;22796;-69
2023/06/05 00:14:22;;;;;;;4.80;3.70;;;;;;;10.19;82.71;96083.02;106781;1274;25589;-70
2023/06/05 00:16:51;;;;;;;4.40;3.40;;;;;;;10.13;83.57;96085.70;106673;1274;25535;-70
2023/06/05 00:19:20;;;;;;;5.60;3.60;;;;;;;10.12;83.78;96081.67;106693;1251;25587;-70
2023/06/05 00:21:50;;;;;;;6.10;3.20;;;;;;;10.10;83.84;96080.28;106720;1274;22713;-70
2023/06/05 00:24:18;;;;;;;4.60;3.40;;;;;;;10.06;83.25;96076.81;106776;1274;22573;-69
2023/06/05 00:26:47;;;;;;;3.50;2.70;;;;;;;10.04;83.11;96078.05;106786;1274;22606;-69
2023/06/05 00:29:15;;;;;;;3.30;3.00;;;;;;;9.98;83.60;96074.94;106710;1274;25271;-71
2023/06/05 00:31:45;;;;;;;6.50;3.20;;;;;;;9.93;83.54;96074.45;106702;1274;22563;-70
2023/06/05 00:34:14;;;;;;;4.30;2.70;;;;;;;9.89;83.20;96074.30;106777;1274;22535;-71
2023/06/05 00:36:42;;;;;;;8.00;3.30;;;;;;;9.86;83.53;96074.16;106664;1251;24266;-70
2023/06/05 00:39:10;;;;;;;4.80;3.10;;;;;;;9.81;83.73;96077.17;106798;1274;22626;-70
2023/06/05 00:41:41;;;;;;;5.40;3.00;;;;;;;9.82;84.71;96081.92;106709;1274;22514;-71
2023/06/05 00:44:11;;;;;;;5.70;3.60;;;;;;;9.81;84.92;96082.28;106813;1274;22518;-70
2023/06/05 00:46:39;;;;;;;4.00;3.30;;;;;;;9.83;84.70;96080.52;106841;1274;22634;-71
2023/06/05 00:49:09;;;;;;;3.10;2.70;;;;;;;9.86;84.74;96078.91;106815;1274;22931;-70
2023/06/05 00:51:41;;;;;;;3.80;3.00;;;;;;;9.91;84.81;96074.83;106844;1274;25454;-71
2023/06/05 00:54:10;;;;;;;5.90;3.00;;;;;;;9.93;84.72;96076.92;106724;1274;22900;-70
2023/06/05 00:56:40;;;;;;;4.60;2.90;;;;;;;9.89;84.61;96075.90;106726;1274;22634;-70
2023/06/05 00:59:09;;;;;;;6.10;3.20;;;;;;;9.88;84.67;96074.15;106689;1274;25497;-71
2023/06/05 01:01:38;;;;;;;5.70;3.10;;;;;;;9.98;84.69;96073.54;106676;1274;22976;-70
2023/06/05 01:04:06;;;;;;;5.30;2.60;;;;;;;9.90;83.45;96078.18;106619;1260;24216;-70
2023/06/05 01:06:35;;;;;;;5.80;3.20;;;;;;;9.80;83.20;96079.31;106736;1274;24193;-70
2023/06/05 01:09:05;;;;;;;4.50;3.10;;;;;;;9.74;84.24;96076.55;106740;1274;25771;-70
2023/06/05 01:11:38;;;;;;;3.90;3.00;;;;;;;9.77;84.80;96078.80;106800;1274;22528;-70
2023/06/05 01:14:22;;;;;;;3.70;3.00;;;;;;;9.81;84.74;96077.90;106799;1271;22514;-71
2023/06/05 01:16:54;;;;;;;;;;;;;;;9.87;84.80;96076.80;106722;1274;24412;-70
2023/06/05 01:19:24;;;;;;;4.80;3.20;;;;;;;9.82;84.66;96074.73;106700;1274;22547;-70
2023/06/05 01:21:53;;;;;;;4.30;2.80;;;;;;;9.83;84.77;96078.05;106654;1251;24198;-71
2023/06/05 01:24:22;;;;;;;3.70;2.60;;;;;;;9.89;84.58;96072.04;106792;1274;22615;-70
2023/06/05 01:26:54;;;;;;;4.50;2.70;;;;;;;9.91;84.01;96074.30;106736;1274;25484;-70
2023/06/05 01:29:41;;;;;;;4.30;3.00;;;;;;;9.90;83.84;96072.20;106768;1274;22518;-70
2023/06/05 01:32:18;;;;;;;5.40;2.70;;;;;;;9.86;84.17;96074.70;106665;1274;25188;-71
2023/06/05 01:34:49;;;;;;;4.20;2.90;;;;;;;9.85;85.34;96077.17;106673;1274;25484;-70
2023/06/05 01:37:18;;;;;;;4.30;3.20;;;;;;;9.91;85.21;96073.06;106675;1274;24380;-70
2023/06/05 01:39:48;;;;;;;4.50;3.50;;;;;;;9.95;84.51;96073.39;106682;1274;22528;-71
2023/06/05 01:42:18;;;;;;;5.50;3.70;;;;;;;9.98;84.54;96069.49;106756;1274;24202;-71
2023/06/05 01:44:47;;;;;;;10.00;3.60;;;;;;;10.05;84.60;96067.84;106700;1274;24205;-71
2023/06/05 01:47:17;;;;;;;6.10;3.70;;;;;;;10.08;84.00;96070.64;106694;1274;22752;-70
2023/06/05 01:49:46;;;;;;;4.30;3.50;;;;;;;10.05;83.50;96075.59;106822;1274;22523;-70
2023/06/05 01:52:14;;;;;;;4.20;3.10;;;;;;;10.00;83.39;96067.89;106732;1274;23146;-70
2023/06/05 01:54:42;;;;;;;5.90;3.30;;;;;;;9.93;83.40;96072.36;106766;1274;25328;-70
2023/06/05 01:57:11;;;;;;;4.90;3.10;;;;;;;9.84;83.86;96070.67;106770;1274;25316;-71
2023/06/05 01:59:39;;;;;;;4.00;3.00;;;;;;;9.76;83.46;96075.12;106812;1274;22543;-70
2023/06/05 02:02:07;;;;;;;4.50;3.10;;;;;;;9.68;83.60;96074.13;106602;1274;22582;-70
2023/06/05 02:04:37;;;;;;;3.60;2.80;;;;;;;9.62;83.60;96070.83;106761;1274;24246;-70
2023/06/05 02:07:07;;;;;;;3.70;2.90;;;;;;;9.60;84.04;96071.04;106730;1274;24225;-70
2023/06/05 02:09:35;;;;;;;5.30;3.70;;;;;;;9.56;84.53;96068.44;106810;1274;24269;-71
2023/06/05 02:12:05;;;;;;;7.60;3.80;;;;;;;9.58;84.75;96068.05;106674;1274;24287;-70
2023/06/05 02:14:37;;;;;;;4.80;3.50;;;;;;;9.54;84.70;96064.57;106711;1274;22629;-71
2023/06/05 02:17:05;;;;;;;5.50;3.60;;;;;;;9.55;85.29;96062.80;106715;1274;24370;-71
2023/06/05 02:19:34;;;;;;;7.70;3.50;;;;;;;9.60;85.48;96066.10;106777;1274;25334;-70
2023/06/05 02:22:02;;;;;;;5.40;3.10;;;;;;;9.59;85.35;96062.42;106768;1274;25460;-70
2023/06/05 02:24:31;;;;;;;4.70;3.00;;;;;;;9.59;86.23;96061.38;106721;1274;22514;-70
2023/06/05 02:26:59;;;;;;;4.20;3.40;;;;;;;9.63;86.22;96059.05;106608;1274;25226;-70
2023/06/05 02:29:28;;;;;;;4.70;3.20;;;;;;;9.69;86.04;96059.37;106770;1273;25226;-71
2023/06/05 02:31:56;;;;;;;5.90;3.00;;;;;;;9.79;85.88;96059.63;106681;1274;25364;-70
2023/06/05 02:34:25;;;;;;;4.70;3.40;;;;;;;9.80;85.41;96055.77;106747;1274;22526;-70
2023/06/05 02:36:53;;;;;;;3.10;2.80;;;;;;;9.78;85.67;96057.02;106685;1274;25575;-70
2023/06/05 02:39:22;;;;;;;3.60;2.80;;;;;;;9.79;85.30;96052.77;106758;1253;24193;-71
2023/06/05 02:41:50;;;;;;;4.30;3.20;;;;;;;9.86;85.30;96049.92;106677;1274;22508;-71
2023/06/05 02:44:18;;;;;;;3.60;2.80;;;;;;;9.89;84.82;96049.02;106754;1272;22543;-71
2023/06/05 02:46:46;;;;;;;3.10;2.50;;;;;;;9.84;84.32;96045.89;106635;1274;22504;-71
2023/06/05 02:49:15;;;;;;;4.40;3.00;;;;;;;9.79;84.23;96048.23;106747;1274;22601;-70
2023/06/05 02:51:43;;;;;;;4.80;3.50;;;;;;;9.72;84.93;96047.39;106674;1273;22588;-71
2023/06/05 02:54:12;;;;;;;5.50;3.20;;;;;;;9.69;85.60;96048.30;106806;1274;25297;-70
2023/06/05 02:56:43;;;;;;;5.50;3.50;;;;;;;9.77;86.07;96041.20;106740;1274;24193;-71
2023/06/05 02:59:12;;;;;;;6.70;3.50;;;;;;;9.88;85.79;96040.41;106687;1274;25210;-70
2023/06/05 03:01:43;;;;;;;5.40;3.40;;;;;;;9.90;85.41;96047.96;106731;1274;24248;-70
2023/06/05 03:04:12;;;;;;;3.70;2.90;;;;;;;9.85;84.70;96042.02;106668;1274;24842;-70
2023/06/05 03:06:43;;;;;;;3.70;2.80;;;;;;;9.86;85.06;96038.15;106749;1274;22608;-71
2023/06/05 03:09:11;;;;;;;4.80;2.90;;;;;;;9.96;85.28;96034.35;106677;1274;22548;-70
2023/06/05 03:11:40;;;;;;;5.60;3.30;;;;;;;10.02;85.27;96036.24;106748;1274;22558;-70
2023/06/05 03:14:09;;;;;;;4.30;3.90;;;;;;;10.04;85.35;96040.27;106700;1274;22513;-71
2023/06/05 03:16:41;;;;;;;5.40;3.70;;;;;;;10.05;84.67;96038.34;106585;1274;22518;-70
2023/06/05 03:19:10;;;;;;;8.10;4.00;;;;;;;10.09;85.05;96037.39;106706;1274;24339;-71
2023/06/05 03:21:43;;;;;;;6.40;4.10;;;;;;;10.17;84.90;96034.88;106326;1260;598190;-70
2023/06/05 03:24:15;;;;;;;8.70;4.40;;;;;;;10.24;84.98;96032.34;106747;1274;22517;-71
2023/06/05 03:26:48;;;;;;;8.30;4.60;;;;;;;10.32;84.99;96037.56;106731;1274;22569;-71
2023/06/05 03:29:16;;;;;;;7.80;5.10;;;;;;;10.34;84.62;96034.55;106666;1274;25306;-70
2023/06/05 03:31:45;;;;;;;8.90;6.70;;;;;;;10.28;84.12;96034.77;106744;1274;24368;-71
2023/06/05 03:34:13;;;;;;;12.40;6.20;;;;;;;10.22;84.30;96032.18;106609;1274;23778;-71
2023/06/05 03:36:41;;;;;;;19.70;10.90;;;;;;;10.21;84.98;96029.04;106509;1274;24373;-71
2023/06/05 03:39:11;;;;;;;7.30;5.80;;;;;;;10.25;85.39;96027.58;106692;1274;24474;-71
2023/06/05 03:41:40;;;;;;;9.80;5.60;;;;;;;10.29;85.08;96030.03;106859;1263;22529;-71
2023/06/05 03:44:09;;;;;;;8.90;7.00;;;;;;;10.28;85.63;96034.08;106693;1274;25455;-71
2023/06/05 03:46:37;;;;;;;9.00;6.80;;;;;;;10.30;85.84;96036.35;106719;1274;25246;-70
2023/06/05 03:49:08;;;;;;;9.80;7.00;;;;;;;10.33;86.05;96036.66;106808;1274;22588;-71
2023/06/05 03:51:39;;;;;;;10.90;7.60;;;;;;;10.36;85.95;96025.91;106803;1274;22588;-70
2023/06/05 03:54:08;;;;;;;11.90;8.70;;;;;;;10.41;85.87;96029.73;106818;1274;23146;-71
2023/06/05 03:56:42;;;;;;;11.90;8.30;;;;;;;10.44;85.96;96026.70;106767;1274;24223;-71
2023/06/05 03:59:19;;;;;;;12.70;8.40;;;;;;;10.43;86.21;96024.78;106686;1274;23876;-71
2023/06/05 04:01:56;;;;;;;6.40;4.40;;;;;;;10.46;86.56;96025.80;106696;1274;22724;-71
2023/06/05 04:04:25;;;;;;;12.40;6.40;;;;;;;10.44;86.87;96025.31;106661;1274;24532;-70
2023/06/05 04:06:56;;;;;;;9.00;5.80;;;;;;;10.50;87.10;96027.16;106657;1275;24283;-72
2023/06/05 04:09:26;;;;;;;11.30;5.80;;;;;;;10.62;87.29;96032.13;106801;1274;25496;-71
2023/06/05 04:11:55;;;;;;;7.50;6.20;;;;;;;10.73;87.43;96031.11;106695;1274;22541;-71
2023/06/05 04:14:23;;;;;;;7.50;5.40;;;;;;;10.84;87.25;96028.86;106841;1274;22528;-71
2023/06/05 04:16:52;;;;;;;10.50;5.30;;;;;;;10.93;86.97;96024.89;106791;1274;22675;-71
2023/06/05 04:19:22;;;;;;;7.10;5.70;;;;;;;11.07;87.08;96028.73;106762;1274;25532;-70
2023/06/05 04:21:53;;;;;;;6.40;5.00;;;;;;;11.22;86.93;96030.31;106746;1274;23893;-71
2023/06/05 04:24:21;;;;;;;6.90;5.20;;;;;;;11.39;86.70;96033.05;106736;1274;22782;-71
2023/06/05 04:26:49;;;;;;;8.00;5.30;;;;;;;11.55;86.41;96031.05;106710;1274;25363;-71
2023/06/05 04:29:18;;;;;;;7.20;5.10;;;;;;;11.74;86.57;96027.58;106755;1274;25343;-71
2023/06/05 04:31:47;;;;;;;8.60;4.80;;;;;;;11.91;86.13;96025.73;106770;1274;22518;-71
2023/06/05 04:34:19;;;;;;;9.20;5.30;;;;;;;12.07;85.72;96027.76;106794;1274;22518;-71
2023/06/05 04:36:49;;;;;;;5.90;4.60;;;;;;;12.23;85.49;96026.42;106775;1274;25386;-71
2023/06/05 04:39:19;;;;;;;8.10;4.40;;;;;;;12.36;84.95;96022.64;106782;1254;24243;-71
2023/06/05 04:41:48;;;;;;;8.40;4.90;;;;;;;12.47;84.92;96018.56;106730;1267;23941;-71
2023/06/05 04:44:37;;;;;;;5.00;4.20;;;;;;;12.61;84.81;96019.34;106793;1274;24242;-70
2023/06/05 04:47:06;;;;;;;5.80;3.90;;;;;;;12.76;84.71;96014.62;106782;1274;25459;-71
2023/06/05 04:49:35;;;;;;;7.10;4.00;;;;;;;12.95;84.57;96016.16;106776;1274;23879;-69
2023/06/05 04:52:03;;;;;;;7.50;4.00;;;;;;;13.14;84.09;96015.41;106768;1274;22534;-71
2023/06/05 04:54:32;;;;;;;6.10;4.00;;;;;;;13.31;83.82;96019.83;106808;1274;22512;-71
2023/06/05 04:57:01;;;;;;;7.90;3.90;;;;;;;13.46;82.96;96018.98;106636;1271;24199;-71
2023/06/05 04:59:32;;;;;;;6.80;4.10;;;;;;;13.60;82.48;96018.83;106655;1274;22514;-71
2023/06/05 05:02:02;;;;;;;7.40;4.70;;;;;;;13.68;81.97;96020.57;106794;1274;25609;-71
2023/06/05 05:04:32;;;;;;;4.80;4.30;;;;;;;13.80;81.90;96018.52;106767;1274;25383;-71
2023/06/05 05:07:03;;;;;;;4.50;4.00;;;;;;;13.93;81.93;96016.78;106624;1275;24474;-70
2023/06/05 05:09:32;;;;;;;6.00;4.40;;;;;;;14.03;81.03;96015.30;106708;1274;22518;-71
2023/06/05 05:12:01;;;;;;;5.60;4.00;;;;;;;14.12;80.72;96011.17;106739;1275;25438;-70
2023/06/05 05:14:29;;;;;;;5.50;3.80;;;;;;;14.23;80.13;96008.07;106722;1274;25223;-70
2023/06/05 05:16:57;;;;;;;6.70;3.90;;;;;;;14.34;80.02;96004.06;106761;1274;25384;-70
2023/06/05 05:19:27;;;;;;;6.30;4.20;;;;;;;14.42;79.18;96000.31;106763;1274;22637;-71
2023/06/05 05:21:57;;;;;;;7.90;3.70;;;;;;;14.48;79.57;95995.52;106743;1274;24237;-71
2023/06/05 05:24:26;;;;;;;5.30;3.70;;;;;;;14.57;79.58;96000.45;106721;1275;22595;-71
2023/06/05 05:26:54;;;;;;;4.60;3.70;;;;;;;14.66;79.57;96001.63;106796;1274;25358;-70
2023/06/05 05:29:23;;;;;;;4.10;3.70;;;;;;;14.73;79.20;95995.77;106701;1274;26583;-68
2023/06/05 05:31:51;;;;;;;6.50;4.10;;;;;;;14.77;79.05;95994.25;106767;1274;26468;-70
2023/06/05 05:34:21;;;;;;;5.10;4.00;;;;;;;14.78;78.82;95994.91;106716;1275;22518;-70
2023/06/05 05:36:49;;;;;;;5.60;3.70;;;;;;;14.81;78.80;95996.08;106682;1274;24273;-70
2023/06/05 05:39:18;;;;;;;5.50;3.60;;;;;;;14.87;77.85;95996.95;106607;1275;26583;-71
2023/06/05 05:41:46;;;;;;;4.90;3.60;;;;;;;14.89;77.78;95995.65;106726;1274;22518;-70
2023/06/05 05:44:15;;;;;;;4.90;3.40;;;;;;;14.98;77.93;95998.22;106681;1274;24218;-70
2023/06/05 05:46:47;;;;;;;4.60;3.80;;;;;;;15.06;77.55;95996.04;106753;1274;25194;-70
2023/06/05 05:49:15;;;;;;;5.80;3.90;;;;;;;15.16;77.60;95991.84;106766;1274;25259;-71
2023/06/05 05:51:44;;;;;;;6.00;3.90;;;;;;;15.27;77.83;95991.50;106762;1274;24249;-70
2023/06/05 05:54:12;;;;;;;5.00;4.00;;;;;;;15.38;77.86;95992.21;106759;1274;22550;-70
2023/06/05 05:56:42;;;;;;;6.20;4.20;;;;;;;15.50;77.68;95993.98;106743;1275;22512;-71
2023/06/05 05:59:10;;;;;;;5.80;4.20;;;;;;;15.59;77.47;95995.11;106761;1275;25343;-70
2023/06/05 06:01:40;;;;;;;5.70;3.90;;;;;;;15.72;77.47;95997.21;106747;1271;23789;-71
2023/06/05 06:04:11;;;;;;;5.50;3.80;;;;;;;15.88;77.73;95992.80;106791;1274;22518;-71
2023/06/05 06:06:39;;;;;;;7.80;4.20;;;;;;;16.06;77.56;95992.20;106764;1274;22514;-71
2023/06/05 06:09:08;;;;;;;4.30;3.60;;;;;;;16.23;77.83;95988.59;106752;1274;25350;-70
2023/06/05 06:11:37;;;;;;;5.00;3.50;;;;;;;16.40;77.48;95982.86;106832;1274;25268;-71
2023/06/05 06:14:05;;;;;;;3.90;3.50;;;;;;;16.57;76.24;95983.15;106665;1274;22528;-71
2023/06/05 06:16:33;;;;;;;4.90;3.40;;;;;;;16.72;76.06;95978.87;106771;1274;25287;-70
2023/06/05 06:19:01;;;;;;;5.40;3.40;;;;;;;16.90;75.21;95981.07;106739;1275;22653;-71
2023/06/05 06:21:30;;;;;;;3.70;3.00;;;;;;;17.06;73.29;95979.77;106722;1274;22517;-71
2023/06/05 06:23:58;;;;;;;3.80;3.00;;;;;;;17.21;72.38;95982.21;106811;1274;22455;-70
2023/06/05 06:26:27;;;;;;;3.90;2.80;;;;;;;17.34;72.05;95981.90;106744;1274;25262;-70
2023/06/05 06:28:57;;;;;;;5.50;3.40;;;;;;;17.50;71.27;95982.89;106732;1267;24208;-71
2023/06/05 06:31:25;;;;;;;4.00;3.20;;;;;;;17.62;70.38;95983.11;106759;1274;22766;-70
2023/06/05 06:33:54;;;;;;;4.30;2.90;;;;;;;17.77;68.61;95979.32;106669;1274;24383;-71
2023/06/05 06:36:22;;;;;;;4.10;3.00;;;;;;;17.98;68.91;95976.35;106714;1274;22537;-69
2023/06/05 06:38:50;;;;;;;3.00;2.40;;;;;;;18.12;64.20;95973.61;106769;1274;24273;-69
2023/06/05 06:41:19;;;;;;;3.10;2.60;;;;;;;18.24;62.09;95974.34;106688;1274;22589;-69
2023/06/05 06:43:47;;;;;;;3.80;2.90;;;;;;;18.36;60.47;95970.97;106759;1274;22518;-69
2023/06/05 06:46:15;;;;;;;3.40;2.50;;;;;;;18.50;58.82;95971.30;106720;1274;23874;-68
2023/06/05 06:48:44;;;;;;;4.80;2.90;;;;;;;18.62;58.80;95969.68;106746;1274;22518;-69
2023/06/05 06:51:12;;;;;;;3.80;2.90;;;;;;;18.75;60.04;95967.68;106711;1274;22934;-69
2023/06/05 06:53:41;;;;;;;7.30;2.80;;;;;;;18.89;61.07;95967.62;106722;1274;22639;-68
2023/06/05 06:56:09;;;;;;;5.60;2.70;;;;;;;19.00;58.23;95964.39;106808;1274;22528;-69
2023/06/05 06:58:38;;;;;;;4.70;2.60;;;;;;;19.09;56.65;95960.45;106652;1275;24273;-68
2023/06/05 07:01:06;;;;;;;4.20;2.40;;;;;;;19.16;54.76;95958.85;106744;1274;22514;-69
2023/06/05 07:03:35;;;;;;;5.30;2.60;;;;;;;19.26;56.05;95960.16;106781;1274;24247;-70
2023/06/05 07:06:04;;;;;;;6.40;2.80;;;;;;;19.34;54.55;95957.11;106769;1274;22624;-69
2023/06/05 07:08:33;;;;;;;5.80;2.70;;;;;;;19.36;53.22;95950.95;106780;1274;22518;-70
2023/06/05 07:11:01;;;;;;;3.80;3.00;;;;;;;19.44;52.96;95945.77;106840;1274;25315;-70
2023/06/05 07:13:29;;;;;;;3.40;2.50;;;;;;;19.56;53.86;95949.84;106769;1274;25306;-69
2023/06/05 07:15:57;;;;;;;4.20;2.70;;;;;;;19.65;51.85;95952.97;106800;1275;22524;-70
2023/06/05 07:18:27;;;;;;;3.90;2.60;;;;;;;19.76;53.04;95953.01;106794;1275;25268;-70
2023/06/05 07:20:55;;;;;;;3.00;2.60;;;;;;;19.86;53.41;95948.90;106736;1274;22592;-69
2023/06/05 07:23:23;;;;;;;5.10;2.40;;;;;;;19.96;51.87;95948.45;106696;1274;23880;-70
2023/06/05 07:25:52;;;;;;;3.40;2.40;;;;;;;20.01;50.83;95947.11;106777;1274;25012;-70
2023/06/05 07:28:20;;;;;;;3.40;2.90;;;;;;;20.14;52.58;95948.79;106680;1274;25321;-70
2023/06/05 07:30:50;;;;;;;3.40;2.80;;;;;;;20.25;51.44;95950.71;106756;1274;22521;-69
2023/06/05 07:33:18;;;;;;;4.00;2.70;;;;;;;20.32;50.38;95953.42;106866;1273;25228;-70
2023/06/05 07:35:59;;;;;;;3.10;2.80;;;;;;;20.37;51.21;95947.95;106750;1274;23256;-69
2023/06/05 07:38:29;;;;;;;3.50;2.80;;;;;;;20.41;50.75;95946.86;106754;1264;22509;-70
2023/06/05 07:41:01;;;;;;;5.50;2.90;;;;;;;20.47;51.40;95942.11;106784;1274;25278;-70
2023/06/05 07:43:29;;;;;;;5.20;2.70;;;;;;;20.58;51.78;95943.84;106793;1274;22525;-70
2023/06/05 07:45:57;;;;;;;5.00;3.10;;;;;;;20.69;52.00;95942.56;106745;1274;22525;-70
2023/06/05 07:48:27;;;;;;;3.30;3.00;;;;;;;20.79;51.40;95949.73;106740;1274;24343;-69
2023/06/05 07:50:56;;;;;;;3.40;2.90;;;;;;;20.83;50.17;95943.08;106789;1275;24356;-69
2023/06/05 07:53:24;;;;;;;6.90;3.10;;;;;;;20.91;51.64;95945.34;106819;1275;22533;-71
2023/06/05 07:55:53;;;;;;;3.50;3.00;;;;;;;21.03;51.92;95949.33;106799;1274;22520;-70
2023/06/05 07:58:21;;;;;;;4.50;2.90;;;;;;;21.18;52.23;95945.49;106783;1274;22871;-70
2023/06/05 08:00:49;;;;;;;3.20;2.90;;;;;;;21.28;50.25;95946.20;106825;1274;25464;-71
2023/06/05 08:03:20;;;;;;;4.00;3.30;;;;;;;21.38;51.25;95950.64;106720;1274;24222;-70
2023/06/05 08:05:49;;;;;;;4.90;3.70;;;;;;;21.48;50.72;95953.35;106759;1274;22518;-70
2023/06/05 08:08:18;;;;;;;4.60;3.20;;;;;;;21.55;50.33;95958.83;106705;1274;25354;-70
2023/06/05 08:10:47;;;;;;;5.20;3.20;;;;;;;21.58;49.72;95959.90;106839;1274;22532;-70
2023/06/05 08:13:16;;;;;;;8.90;4.10;;;;;;;21.64;50.17;95960.29;106753;1274;22752;-70
2023/06/05 08:15:44;;;;;;;5.00;3.20;;;;;;;21.78;50.40;95959.52;106683;1274;24198;-70
2023/06/05 08:18:15;;;;;;;3.40;2.70;;;;;;;21.87;50.66;95956.30;106679;1274;22517;-70
2023/06/05 08:20:43;;;;;;;4.40;3.70;;;;;;;21.97;50.55;95953.44;106767;1274;24327;-71
2023/06/05 08:23:11;;;;;;;5.70;3.10;;;;;;;22.02;50.67;95952.40;106634;1257;22699;-70
2023/06/05 08:25:39;;;;;;;6.60;3.20;;;;;;;22.09;51.10;95948.44;106832;1266;22553;-71
2023/06/05 08:28:08;;;;;;;5.50;3.50;;;;;;;22.09;48.86;95944.12;106763;1274;24225;-70
2023/06/05 08:30:36;;;;;;;6.10;3.30;;;;;;;22.09;48.45;95941.24;106752;1274;22732;-70
2023/06/05 08:33:04;;;;;;;4.00;3.20;;;;;;;22.07;49.30;95940.86;106789;1274;22520;-70
2023/06/05 08:35:33;;;;;;;6.40;3.60;;;;;;;22.07;50.37;95937.59;106705;1274;22520;-70
2023/06/05 08:38:03;;;;;;;3.80;3.50;;;;;;;22.15;50.59;95938.77;106717;1274;22515;-70
2023/06/05 08:40:33;;;;;;;4.10;3.10;;;;;;;22.21;50.49;95938.94;106677;1274;26663;-71
2023/06/05 08:43:01;;;;;;;3.90;3.40;;;;;;;22.28;50.50;95938.02;106740;1274;22766;-70
2023/06/05 08:45:33;;;;;;;5.20;4.00;;;;;;;22.35;50.72;95935.09;106795;1260;22700;-70
2023/06/05 08:48:01;;;;;;;4.60;4.00;;;;;;;22.40;50.74;95927.96;106768;1274;22839;-71
2023/06/05 08:50:30;;;;;;;5.70;3.70;;;;;;;22.46;50.82;95929.21;106752;1274;25699;-70
2023/06/05 08:53:00;;;;;;;4.00;3.10;;;;;;;22.54;50.48;95932.70;106728;1274;22529;-70
2023/06/05 08:55:29;;;;;;;4.60;3.50;;;;;;;22.61;50.75;95936.18;106743;1274;22709;-71
2023/06/05 08:57:59;;;;;;;5.00;3.10;;;;;;;22.72;49.04;95934.47;106822;1274;22602;-71
2023/06/05 09:00:27;;;;;;;4.00;3.20;;;;;;;22.69;49.39;95931.92;106823;1260;24348;-71
2023/06/05 09:02:57;;;;;;;5.60;3.60;;;;;;;22.71;49.58;95929.52;106720;1274;25419;-71
2023/06/05 09:05:25;;;;;;;6.70;3.70;;;;;;;22.86;49.90;95930.39;106771;1274;24285;-71
2023/06/05 09:07:53;;;;;;;4.40;3.50;;;;;;;23.03;49.89;95921.81;106741;1274;24067;-70
2023/06/05 09:10:29;;;;;;;5.70;3.70;;;;;;;23.18;49.74;95922.98;106746;1274;22563;-71
2023/06/05 09:13:00;;;;;;;4.20;3.10;;;;;;;23.26;49.36;95923.60;106785;1274;25334;-71
2023/06/05 09:15:33;;;;;;;4.00;3.20;;;;;;;23.37;50.20;95921.45;106755;1274;26179;-70
2023/06/05 09:18:14;;;;;;;3.80;3.40;;;;;;;23.49;49.97;95925.73;106666;1274;22520;-70
2023/06/05 09:20:47;;;;;;;6.10;3.80;;;;;;;23.57;48.51;95918.92;106795;1262;22649;-70
2023/06/05 09:23:26;;;;;;;5.80;3.80;;;;;;;23.67;47.95;95918.05;106748;1274;22532;-71
2023/06/05 09:25:58;;;;;;;5.80;3.60;;;;;;;23.83;49.09;95917.40;106790;1274;25268;-71
2023/06/05 09:28:27;;;;;;;3.60;3.30;;;;;;;23.98;49.02;95920.41;106850;1274;22521;-71
2023/06/05 09:30:59;;;;;;;6.00;3.50;;;;;;;24.10;47.78;95916.54;106766;1274;22518;-71
2023/06/05 09:33:35;;;;;;;5.00;3.70;;;;;;;24.18;47.15;95915.41;106765;1274;22601;-71
2023/06/05 09:36:09;;;;;;;4.80;3.50;;;;;;;24.21;46.90;95914.36;106749;1274;25396;-70
2023/06/05 09:38:40;;;;;;;4.30;3.40;;;;;;;24.27;47.12;95912.14;106720;1274;22515;-70
2023/06/05 09:41:20;;;;;;;6.70;3.40;;;;;;;24.37;47.03;95917.21;106737;1274;22517;-68
2023/06/05 09:43:51;;;;;;;5.70;3.90;;;;;;;24.52;46.34;95919.65;106750;1274;22650;-70
2023/06/05 09:46:19;;;;;;;6.80;3.50;;;;;;;24.62;45.93;95924.52;106734;1274;22526;-71
2023/06/05 09:48:58;;;;;;;5.20;3.20;;;;;;;24.74;45.94;95928.01;106775;1274;25214;-71
2023/06/05 09:51:28;;;;;;;5.00;3.50;;;;;;;24.76;44.07;95918.02;106645;1257;24199;-71
2023/06/05 09:53:58;;;;;;;7.20;3.70;;;;;;;24.63;43.69;95912.55;106797;1274;24242;-68
2023/06/05 09:56:28;;;;;;;4.20;3.70;;;;;;;24.61;45.73;95914.14;106771;1274;25401;-70
2023/06/05 09:58:57;;;;;;;7.00;3.60;;;;;;;24.60;46.01;95918.19;106784;1274;22516;-71
2023/06/05 10:01:28;;;;;;;4.10;3.20;;;;;;;24.80;44.14;95912.29;106783;1274;22511;-71
2023/06/05 10:03:58;;;;;;;5.00;3.40;;;;;;;24.94;44.96;95906.09;106739;1274;22507;-72
2023/06/05 10:06:28;;;;;;;3.50;3.20;;;;;;;25.15;43.90;95903.55;106782;1274;23343;-71
2023/06/05 10:08:57;;;;;;;8.30;3.40;;;;;;;25.33;44.74;95904.38;106778;1274;23018;-70
2023/06/05 10:11:26;;;;;;;7.30;3.40;;;;;;;25.41;44.33;95901.30;106714;1274;24357;-71
2023/06/05 10:13:58;;;;;;;6.20;3.40;;;;;;;25.42;44.35;95899.41;106737;1274;24521;-69
2023/06/05 10:16:28;;;;;;;5.50;3.30;;;;;;;25.25;44.23;95897.45;106760;1274;23899;-68
2023/06/05 10:18:59;;;;;;;3.50;3.20;;;;;;;25.30;44.78;95891.63;106789;1274;25408;-68
2023/06/05 10:21:28;;;;;;;3.90;3.40;;;;;;;25.56;44.76;95897.51;106739;1274;22549;-68
2023/06/05 10:24:09;;;;;;;4.20;3.80;;;;;;;25.67;43.06;95888.61;106778;1274;24535;-68
2023/06/05 10:26:56;;;;;;;4.40;3.50;;;;;;;25.88;44.23;95889.01;106783;1274;22517;-68
2023/06/05 10:29:37;;;;;;;4.80;3.00;;;;;;;26.04;43.12;95883.91;106780;1274;22538;-68
2023/06/05 10:32:11;;;;;;;4.00;3.30;;;;;;;26.26;42.82;95881.14;106795;1274;22643;-68
2023/06/05 10:35:15;;;;;;;4.70;3.30;;;;;;;26.24;42.78;95883.23;106796;1274;22634;-69
2023/06/05 10:37:43;;;;;;;4.10;3.40;;;;;;;26.10;43.09;95881.08;106770;1274;24348;-68
2023/06/05 10:40:12;;;;;;;5.40;3.50;;;;;;;25.89;42.66;95886.45;106828;1274;24656;-69
2023/06/05 10:42:40;;;;;;;4.60;3.50;;;;;;;25.87;43.58;95883.69;106832;1274;22641;-68
2023/06/05 10:45:10;;;;;;;5.20;3.70;;;;;;;26.14;44.91;95882.19;106824;1274;22516;-71
2023/06/05 10:47:39;;;;;;;4.80;3.30;;;;;;;26.47;44.21;95874.64;106783;1274;25491;-71
2023/06/05 10:50:20;;;;;;;4.30;3.50;;;;;;;26.62;41.75;95869.36;106783;1274;22523;-69
2023/06/05 10:52:49;;;;;;;5.60;3.20;;;;;;;26.56;42.54;95873.09;106760;1274;23855;-69
2023/06/05 10:55:20;;;;;;;3.40;3.10;;;;;;;26.24;41.61;95875.30;106804;1274;22526;-69
2023/06/05 10:58:00;;;;;;;4.90;3.20;;;;;;;25.82;42.36;95882.08;106689;1274;22574;-69
2023/06/05 11:00:32;;;;;;;5.40;3.60;;;;;;;25.45;44.21;95888.02;106857;1274;24238;-69
2023/06/05 11:03:01;;;;;;;4.00;3.30;;;;;;;25.20;44.69;95887.68;106765;1274;22585;-69
2023/06/05 11:05:30;;;;;;;4.60;3.70;;;;;;;24.77;44.87;95890.73;106797;1274;24339;-70
2023/06/05 11:08:16;;;;;;;6.20;3.50;;;;;;;24.45;46.21;95895.82;106694;1251;22517;-70
2023/06/05 11:11:09;;;;;;;6.50;3.50;;;;;;;24.11;47.09;95897.23;106688;1274;22523;-69
2023/06/05 11:13:53;;;;;;;6.90;3.90;;;;;;;23.84;47.75;95900.52;106786;1274;24508;-70
2023/06/05 11:16:32;;;;;;;5.20;3.90;;;;;;;23.65;48.41;95902.06;106759;1274;22514;-69
2023/06/05 11:19:20;;;;;;;4.10;3.70;;;;;;;23.40;48.83;95910.33;106718;1274;22516;-69
2023/06/05 11:22:11;;;;;;;11.00;4.50;;;;;;;22.98;50.87;95924.81;106766;1274;22512;-70
2023/06/05 11:24:39;;;;;;;10.50;4.60;;;;;;;22.25;57.63;95935.66;106760;1274;22524;-70
2023/06/05 11:27:50;;;;;;;5.60;3.80;;;;;;;21.17;62.96;95954.66;106750;1273;22524;-69
2023/06/05 11:30:21;;;;;;;4.70;3.60;;;;;;;20.41;64.50;95961.68;106652;1274;24209;-69
2023/06/05 11:33:14;;;;;;;5.40;3.30;;;;;;;19.78;64.53;95969.13;106782;1274;22612;-69
2023/06/05 11:35:48;;;;;;;4.10;3.40;;;;;;;19.27;66.61;95973.70;106768;1274;22584;-69
2023/06/05 11:38:19;;;;;;;6.20;3.00;;;;;;;18.88;67.18;95975.46;106776;1274;25334;-69
2023/06/05 11:40:53;;;;;;;6.10;2.40;;;;;;;18.37;70.08;95978.04;106773;1274;23919;-69
2023/06/05 11:43:22;;;;;;;5.90;2.80;;;;;;;18.05;72.15;95984.60;106826;1263;23402;-69